Time;durP1;ratioP1;P1;durP2;ratioP2;P2;SDS_P1;SDS_P2;PMS_P1;PMS_P2;Temp;Humidity;BMP_temperature;BMP_pressure;BME280_temperature;BME280_humidity;BME280_pressure;Samples;Min_cycle;Max_cycle;Signal;HPM_P1;HPM_P2
2023/04/05 00:02:12;;;;;;;6.93;3.93;;;;;;;0.13;68.89;99159.66;5012717;28;20239;-58
2023/04/05 00:04:50;;;;;;;6.73;4.07;;;;;;;0.21;68.11;99156.75;5024726;28;20234;-59
2023/04/05 00:07:20;;;;;;;6.93;3.87;;;;;;;0.15;69.41;99164.75;5023713;28;20308;-57
2023/04/05 00:09:48;;;;;;;9.07;4.27;;;;;;;0.14;71.32;99163.91;5026899;28;20238;-58
2023/04/05 00:12:14;;;;;;;8.63;4.10;;;;;;;0.07;71.20;99164.25;5026817;28;20250;-58
2023/04/05 00:14:41;;;;;;;11.47;4.63;;;;;;;0.05;71.86;99161.75;5025298;28;20653;-58
2023/04/05 00:17:08;;;;;;;6.07;4.40;;;;;;;0.01;71.79;99162.78;5027820;28;20284;-56
2023/04/05 00:19:36;;;;;;;8.80;4.47;;;;;;;0.02;72.22;99163.63;5025121;28;20275;-58
2023/04/05 00:22:03;;;;;;;6.40;4.30;;;;;;;-0.01;73.02;99156.94;5025855;28;20235;-59
2023/04/05 00:24:32;;;;;;;9.80;4.53;;;;;;;0.02;72.93;99159.31;5020896;28;20683;-58
2023/04/05 00:26:59;;;;;;;6.10;4.30;;;;;;;0.03;73.24;99155.84;5025553;28;20695;-59
2023/04/05 00:29:26;;;;;;;8.33;4.40;;;;;;;0.03;72.48;99160.16;5023624;28;20339;-58
2023/04/05 00:31:53;;;;;;;8.73;4.80;;;;;;;0.09;73.34;99159.88;5024849;28;20241;-58
2023/04/05 00:34:19;;;;;;;6.63;4.47;;;;;;;0.05;73.93;99156.63;5022756;28;20219;-58
2023/04/05 00:36:46;;;;;;;5.67;3.97;;;;;;;-0.06;73.83;99156.31;5026699;28;20699;-58
2023/04/05 00:39:12;;;;;;;8.67;4.63;;;;;;;-0.12;73.71;99149.69;5023149;28;20750;-58
2023/04/05 00:41:40;;;;;;;9.73;4.37;;;;;;;-0.12;73.51;99151.44;5027579;28;20293;-57
2023/04/05 00:44:07;;;;;;;10.03;4.63;;;;;;;-0.09;73.62;99146.19;5024170;28;20231;-58
2023/04/05 00:46:35;;;;;;;10.63;4.50;;;;;;;-0.12;74.79;99146.31;5022380;28;20314;-56
2023/04/05 00:49:02;;;;;;;7.03;4.50;;;;;;;-0.09;74.72;99143.63;5026034;28;20223;-58
2023/04/05 00:51:32;;;;;;;7.47;4.77;;;;;;;-0.08;74.45;99147.84;5019812;28;20235;-58
2023/04/05 00:54:00;;;;;;;6.47;4.10;;;;;;;-0.06;72.67;99141.72;5025078;28;20231;-58
2023/04/05 00:56:28;;;;;;;8.73;4.77;;;;;;;-0.01;72.71;99138.97;5020151;28;21218;-58
2023/04/05 00:58:55;;;;;;;5.90;3.93;;;;;;;0.01;73.24;99138.88;5024030;28;20264;-58
2023/04/05 01:01:25;;;;;;;11.73;4.37;;;;;;;-0.02;73.56;99139.88;5025139;28;20239;-59
2023/04/05 01:03:58;;;;;;;9.30;4.43;;;;;;;-0.03;72.90;99145.91;5023523;28;20230;-57
2023/04/05 01:06:52;;;;;;;9.10;4.40;;;;;;;0.03;73.02;99147.34;5022049;28;20235;-59
2023/04/05 01:09:29;;;;;;;6.60;4.47;;;;;;;-0.01;72.17;99128.69;5013020;28;20219;-59
2023/04/05 01:12:01;;;;;;;7.47;4.57;;;;;;;0.05;72.24;99133.50;5026751;28;20238;-58
2023/04/05 01:14:29;;;;;;;12.33;4.77;;;;;;;0.06;71.11;99129.22;5023118;28;20227;-58
2023/04/05 01:16:57;;;;;;;8.93;4.60;;;;;;;-0.01;71.22;99126.13;5025298;28;20285;-59
2023/04/05 01:19:28;;;;;;;8.03;4.40;;;;;;;0.05;72.84;99128.38;5022871;28;20235;-58
2023/04/05 01:22:20;;;;;;;6.63;4.33;;;;;;;-0.08;73.23;99122.19;5039604;28;20235;-58
2023/04/05 01:25:13;;;;;;;9.63;4.30;;;;;;;-0.12;73.53;99120.66;5023032;28;20231;-58
2023/04/05 01:27:56;;;;;;;6.00;4.10;;;;;;;-0.20;74.91;99116.72;5022062;28;20261;-59
2023/04/05 01:30:29;;;;;;;7.70;4.50;;;;;;;-0.18;75.73;99119.19;5022009;28;20316;-59
2023/04/05 01:33:12;;;;;;;11.07;4.80;;;;;;;-0.18;78.64;99111.50;5023183;28;20240;-59
2023/04/05 01:35:47;;;;;;;6.63;4.13;;;;;;;-0.22;79.63;99112.53;5021483;28;20227;-59
2023/04/05 01:38:20;;;;;;;7.10;4.70;;;;;;;-0.35;79.25;99110.53;5022498;28;20230;-59
2023/04/05 01:40:47;;;;;;;9.37;4.50;;;;;;;-0.50;77.54;99114.63;5024093;28;20242;-59
2023/04/05 01:43:14;;;;;;;8.70;4.73;;;;;;;-0.64;79.02;99107.56;5020812;28;20293;-59
2023/04/05 01:45:44;;;;;;;9.03;3.93;;;;;;;-0.73;79.51;99109.66;5025780;28;20257;-59
2023/04/05 01:48:11;;;;;;;8.93;4.90;;;;;;;-0.84;80.76;99112.72;5037833;28;20283;-60
2023/04/05 01:50:37;;;;;;;6.87;4.53;;;;;;;-0.85;80.46;99111.88;5029776;28;20243;-59
2023/04/05 01:53:04;;;;;;;8.07;4.50;;;;;;;-0.91;80.49;99107.00;5009496;28;20230;-59
2023/04/05 01:55:31;;;;;;;9.20;4.50;;;;;;;-1.00;81.11;99103.13;5025570;28;20243;-58
2023/04/05 01:57:58;;;;;;;7.30;4.10;;;;;;;-1.07;82.12;99101.72;5030362;28;20243;-58
2023/04/05 02:00:24;;;;;;;10.53;4.80;;;;;;;-1.10;80.83;99100.13;5024071;28;20239;-58
2023/04/05 02:02:53;;;;;;;6.97;4.07;;;;;;;-1.16;79.93;99099.53;5028644;28;20238;-59
2023/04/05 02:05:19;;;;;;;7.40;3.93;;;;;;;-1.16;79.19;99091.84;5025661;28;20232;-59
2023/04/05 02:07:46;;;;;;;7.83;4.97;;;;;;;-1.26;79.23;99087.13;5026546;28;20241;-58
2023/04/05 02:10:14;;;;;;;6.83;4.17;;;;;;;-1.25;78.51;99087.97;5027603;28;20224;-58
2023/04/05 02:12:41;;;;;;;8.13;4.37;;;;;;;-1.27;80.36;99088.00;5027715;28;20695;-59
2023/04/05 02:15:09;;;;;;;11.53;4.47;;;;;;;-1.32;80.19;99089.13;5028260;28;20303;-59
2023/04/05 02:17:38;;;;;;;9.13;4.33;;;;;;;-1.41;79.89;99080.91;5028206;28;20262;-56
2023/04/05 02:20:07;;;;;;;10.00;4.73;;;;;;;-1.50;79.56;99082.13;5027922;28;20286;-59
2023/04/05 02:22:35;;;;;;;5.87;4.33;;;;;;;-1.56;80.33;99077.25;5015125;28;20930;-58
2023/04/05 02:25:02;;;;;;;9.93;5.07;;;;;;;-1.53;80.16;99089.09;5029200;28;20927;-59
2023/04/05 02:27:29;;;;;;;8.77;4.63;;;;;;;-1.46;81.31;99089.66;5023974;28;20688;-60
2023/04/05 02:29:56;;;;;;;8.77;4.97;;;;;;;-1.56;80.84;99086.66;5015769;28;20227;-60
2023/04/05 02:32:23;;;;;;;6.47;4.07;;;;;;;-1.57;80.45;99085.81;5043035;28;20234;-59
2023/04/05 02:34:51;;;;;;;11.60;4.53;;;;;;;-1.52;81.43;99088.22;5027255;28;20219;-59
2023/04/05 02:37:19;;;;;;;9.60;4.33;;;;;;;-1.63;80.48;99083.53;5026036;28;20335;-58
2023/04/05 02:39:46;;;;;;;7.30;4.47;;;;;;;-1.61;81.90;99079.19;5028561;28;20228;-58
2023/04/05 02:42:12;;;;;;;9.23;4.50;;;;;;;-1.51;83.21;99088.13;5023790;28;20245;-56
2023/04/05 02:44:39;;;;;;;8.67;4.80;;;;;;;-1.56;82.12;99084.09;5028726;28;20235;-59
2023/04/05 02:47:06;;;;;;;8.27;4.60;;;;;;;-1.54;80.50;99087.44;5028070;28;20228;-59
2023/04/05 02:49:32;;;;;;;8.33;4.33;;;;;;;-1.53;82.28;99082.25;5025481;28;20231;-58
2023/04/05 02:52:02;;;;;;;7.50;4.50;;;;;;;-1.57;83.22;99085.00;5026238;28;20238;-59
2023/04/05 02:54:30;;;;;;;7.20;4.70;;;;;;;-1.66;82.60;99084.47;5025194;28;20230;-58
2023/04/05 02:57:02;;;;;;;6.40;4.33;;;;;;;-1.71;82.74;99080.44;5026581;28;20235;-58
2023/04/05 02:59:37;;;;;;;7.30;4.67;;;;;;;-1.77;83.02;99080.69;5024251;28;20235;-58
2023/04/05 03:02:05;;;;;;;6.80;4.63;;;;;;;-1.85;82.80;99076.72;5027033;28;20603;-59
2023/04/05 03:04:33;;;;;;;9.00;4.43;;;;;;;-1.87;84.15;99075.09;5025758;28;20231;-58
2023/04/05 03:07:03;;;;;;;9.87;5.20;;;;;;;-1.90;84.68;99076.06;5033082;28;20306;-58
2023/04/05 03:09:37;;;;;;;9.67;5.40;;;;;;;-1.89;85.17;99072.63;5029602;28;20289;-59
2023/04/05 03:12:06;;;;;;;9.63;5.17;;;;;;;-1.88;85.99;99078.53;5026647;28;20231;-58
2023/04/05 03:14:37;;;;;;;11.53;4.90;;;;;;;-1.87;85.19;99075.09;5024082;28;20235;-58
2023/04/05 03:17:05;;;;;;;7.70;4.70;;;;;;;-1.86;86.03;99072.50;5026294;28;20679;-57
2023/04/05 03:19:37;;;;;;;7.80;4.73;;;;;;;-1.78;85.57;99077.28;5025608;28;20233;-58
2023/04/05 03:22:13;;;;;;;6.53;4.57;;;;;;;-1.85;84.55;99068.19;5014528;28;20230;-58
2023/04/05 03:24:42;;;;;;;8.13;4.30;;;;;;;-1.95;83.81;99066.00;5028708;28;20943;-58
2023/04/05 03:27:10;;;;;;;10.63;5.13;;;;;;;-2.00;84.93;99070.47;5027388;28;20237;-59
2023/04/05 03:29:46;;;;;;;11.73;5.17;;;;;;;-2.00;85.45;99067.91;5026124;28;20272;-58
2023/04/05 03:32:16;;;;;;;9.17;4.47;;;;;;;-2.02;85.53;99072.25;5326659;22;20696;-58
2023/04/05 03:34:50;;;;;;;9.00;5.00;;;;;;;-2.04;85.38;99076.59;5016588;28;20266;-56
2023/04/05 03:37:18;;;;;;;9.53;4.90;;;;;;;-2.00;85.66;99075.56;5031165;28;20241;-58
2023/04/05 03:39:52;;;;;;;8.83;5.37;;;;;;;-1.92;86.34;99075.28;5016740;28;20232;-58
2023/04/05 03:42:19;;;;;;;7.20;4.70;;;;;;;-1.94;87.01;99072.78;5014441;28;20232;-58
2023/04/05 03:44:46;;;;;;;8.70;5.23;;;;;;;-2.05;85.66;99080.03;5034874;28;20231;-56
2023/04/05 03:47:13;;;;;;;8.80;5.10;;;;;;;-2.11;86.33;99076.00;5018743;28;20243;-59
2023/04/05 03:49:41;;;;;;;6.97;4.93;;;;;;;-2.05;86.16;99076.66;5017244;28;20233;-59
2023/04/05 03:52:08;;;;;;;7.13;5.07;;;;;;;-2.05;85.02;99074.94;5017750;28;20247;-58
2023/04/05 03:54:35;;;;;;;9.63;5.13;;;;;;;-2.04;87.00;99075.78;5014868;28;20731;-58
2023/04/05 03:57:03;;;;;;;9.33;4.67;;;;;;;-2.08;86.40;99077.59;5014322;28;20227;-58
2023/04/05 03:59:31;;;;;;;8.97;4.87;;;;;;;-2.08;85.35;99073.34;5014484;28;20266;-59
2023/04/05 04:01:59;;;;;;;8.43;4.90;;;;;;;-2.06;86.95;99075.00;5023436;28;20235;-59
2023/04/05 04:04:26;;;;;;;8.37;5.07;;;;;;;-2.16;86.69;99069.41;5018837;28;20318;-59
2023/04/05 04:06:53;;;;;;;9.57;5.17;;;;;;;-2.27;86.78;99070.66;5022091;28;20265;-56
2023/04/05 04:09:24;;;;;;;8.98;5.60;;;;;;;-2.21;87.68;99072.13;5020166;28;20440;-59
2023/04/05 04:11:50;;;;;;;7.87;4.80;;;;;;;-2.26;86.74;99077.44;5019569;28;20232;-59
2023/04/05 04:14:21;;;;;;;8.83;5.00;;;;;;;-2.35;86.91;99069.28;5011904;28;20285;-58
2023/04/05 04:17:02;;;;;;;6.67;4.83;;;;;;;-2.33;87.02;99078.56;5016519;28;20302;-59
2023/04/05 04:19:50;;;;;;;9.80;4.87;;;;;;;-2.40;87.55;99066.91;5011550;28;20379;-59
2023/04/05 04:22:47;;;;;;;8.47;4.77;;;;;;;-2.40;87.05;99072.84;5014477;28;20290;-57
2023/04/05 04:25:53;;;;;;;8.90;4.53;;;;;;;-2.42;86.65;99071.25;5017866;28;20595;-57
2023/04/05 04:28:42;;;;;;;8.63;4.90;;;;;;;-2.53;87.67;99077.59;5013982;28;20248;-59
2023/04/05 04:31:38;;;;;;;15.83;8.23;;;;;;;-2.42;87.73;99071.25;5019710;28;20381;-58
2023/04/05 04:34:17;;;;;;;13.50;7.17;;;;;;;-2.38;87.83;99067.69;5013644;28;20230;-59
2023/04/05 04:37:04;;;;;;;10.70;5.40;;;;;;;-2.34;86.80;99068.38;5019036;28;20630;-58
2023/04/05 04:39:33;;;;;;;7.87;4.27;;;;;;;-2.27;86.40;99075.78;5015626;28;20254;-57
2023/04/05 04:42:11;;;;;;;8.87;5.57;;;;;;;-2.17;85.22;99073.69;5019593;28;20251;-59
2023/04/05 04:44:57;;;;;;;8.30;5.10;;;;;;;-2.14;84.77;99073.56;5022772;28;20225;-59
2023/04/05 04:47:52;;;;;;;8.93;5.07;;;;;;;-2.10;84.60;99076.81;5010662;28;20239;-59
2023/04/05 04:50:32;;;;;;;6.67;4.70;;;;;;;-2.11;84.68;99075.16;5011172;28;20325;-59
2023/04/05 04:52:59;;;;;;;9.40;5.67;;;;;;;-2.14;84.60;99072.75;5017231;28;20239;-58
2023/04/05 04:55:26;;;;;;;7.57;5.23;;;;;;;-2.19;85.99;99075.47;5014401;28;20643;-59
2023/04/05 04:57:53;;;;;;;9.70;5.00;;;;;;;-2.20;85.60;99071.25;5017767;28;20226;-56
2023/04/05 05:00:21;;;;;;;7.90;5.37;;;;;;;-2.22;84.50;99075.59;5014080;28;20234;-59
2023/04/05 05:02:48;;;;;;;10.30;4.90;;;;;;;-2.25;85.19;99074.00;5014615;28;20236;-58
2023/04/05 05:05:21;;;;;;;7.17;4.90;;;;;;;-2.18;86.40;99073.75;5010889;28;20230;-59
2023/04/05 05:07:48;;;;;;;8.37;4.57;;;;;;;-2.19;86.51;99080.59;5014856;28;20230;-59
2023/04/05 05:10:15;;;;;;;6.97;4.87;;;;;;;-2.27;86.07;99080.03;5014164;28;20232;-59
2023/04/05 05:12:42;;;;;;;6.77;4.23;;;;;;;-2.30;85.53;99069.94;5015697;28;20255;-56
2023/04/05 05:15:11;;;;;;;9.50;4.90;;;;;;;-2.27;86.04;99074.94;5013039;28;20259;-56
2023/04/05 05:17:38;;;;;;;10.63;5.13;;;;;;;-2.14;85.57;99077.88;5011566;28;20228;-59
2023/04/05 05:20:06;;;;;;;8.53;5.53;;;;;;;-2.12;85.50;99079.47;5017527;28;20255;-59
2023/04/05 05:22:36;;;;;;;11.80;5.27;;;;;;;-2.11;85.90;99077.72;5013349;28;20254;-58
2023/04/05 05:25:03;;;;;;;8.37;5.23;;;;;;;-2.10;85.54;99082.78;5015824;28;20289;-58
2023/04/05 05:27:29;;;;;;;7.33;4.67;;;;;;;-2.10;85.46;99079.38;5014035;28;20220;-58
2023/04/05 05:29:56;;;;;;;9.13;5.17;;;;;;;-2.02;85.46;99084.22;5018773;28;20341;-60
2023/04/05 05:32:22;;;;;;;7.77;4.63;;;;;;;-2.08;85.42;99077.59;5012525;28;20289;-59
2023/04/05 05:34:49;;;;;;;9.10;5.47;;;;;;;-2.03;85.04;99087.66;5018338;28;20713;-59
2023/04/05 05:37:16;;;;;;;12.90;5.87;;;;;;;-1.96;84.74;99079.69;5017134;28;20747;-60
2023/04/05 05:39:44;;;;;;;9.18;5.75;;;;;;;-1.82;85.39;99081.72;5015754;28;20445;-56
2023/04/05 05:42:11;;;;;;;12.13;5.80;;;;;;;-1.76;84.63;99085.75;5003690;28;20232;-56
2023/04/05 05:44:37;;;;;;;11.10;5.07;;;;;;;-1.72;84.03;99078.78;5018454;28;20783;-58
2023/04/05 05:47:04;;;;;;;9.47;6.00;;;;;;;-1.69;84.26;99083.78;5016508;28;20231;-58
2023/04/05 05:49:31;;;;;;;7.27;4.87;;;;;;;-1.60;85.55;99091.09;5012496;28;20243;-57
2023/04/05 05:51:57;;;;;;;7.70;4.97;;;;;;;-1.60;86.07;99085.97;5012096;28;20240;-57
2023/04/05 05:54:25;;;;;;;8.63;4.50;;;;;;;-1.61;84.71;99088.56;5013602;28;20231;-55
2023/04/05 05:56:53;;;;;;;7.47;4.93;;;;;;;-1.55;85.79;99094.28;5016433;28;20227;-58
2023/04/05 05:59:19;;;;;;;9.07;4.90;;;;;;;-1.65;85.04;99090.44;5013526;28;20259;-58
2023/04/05 06:01:46;;;;;;;9.77;5.60;;;;;;;-1.61;85.67;99094.56;5017968;28;20445;-59
2023/04/05 06:04:13;;;;;;;7.67;5.13;;;;;;;-1.54;85.11;99102.78;5010263;28;20235;-56
2023/04/05 06:06:41;;;;;;;8.13;5.17;;;;;;;-1.53;85.22;99104.47;5015463;28;20278;-58
2023/04/05 06:09:08;;;;;;;9.33;4.90;;;;;;;-1.48;85.40;99100.00;5016173;28;20254;-58
2023/04/05 06:11:35;;;;;;;12.60;5.50;;;;;;;-1.41;87.72;99111.66;5014658;28;20337;-58
2023/04/05 06:14:03;;;;;;;7.50;4.67;;;;;;;-1.39;85.60;99102.19;5016274;28;20302;-57
2023/04/05 06:16:29;;;;;;;6.90;4.83;;;;;;;-1.39;85.48;99106.44;5016032;28;20247;-58
2023/04/05 06:18:56;;;;;;;10.57;4.80;;;;;;;-1.39;84.92;99104.75;5018226;28;20215;-58
2023/04/05 06:21:23;;;;;;;9.67;5.73;;;;;;;-1.37;85.09;99112.34;5012854;28;20228;-58
2023/04/05 06:23:51;;;;;;;12.20;7.27;;;;;;;-1.29;86.27;99107.75;5015071;28;20231;-58
2023/04/05 06:26:19;;;;;;;14.83;7.60;;;;;;;-1.28;85.87;99117.09;5011822;28;20224;-55
2023/04/05 06:28:47;;;;;;;15.30;7.37;;;;;;;-1.28;86.37;99114.53;5016754;28;20240;-58
2023/04/05 06:31:16;;;;;;;13.40;8.40;;;;;;;-1.25;87.00;99111.03;5015834;28;20315;-58
2023/04/05 06:33:43;;;;;;;13.30;8.67;;;;;;;-1.21;86.60;99115.94;5016247;28;20227;-58
2023/04/05 06:36:10;;;;;;;16.33;9.33;;;;;;;-1.23;85.43;99115.16;5018297;28;20232;-58
2023/04/05 06:38:37;;;;;;;14.83;9.53;;;;;;;-1.26;85.98;99117.84;5012830;28;20235;-57
2023/04/05 06:41:04;;;;;;;17.83;8.67;;;;;;;-1.27;86.37;99108.50;5020791;28;20231;-57
2023/04/05 06:43:31;;;;;;;14.37;8.47;;;;;;;-1.25;85.81;99116.97;5019268;28;20839;-58
2023/04/05 06:45:58;;;;;;;15.77;8.30;;;;;;;-1.21;86.20;99115.94;5022164;28;21252;-56
2023/04/05 06:48:27;;;;;;;16.40;8.67;;;;;;;-1.14;85.84;99116.53;5016394;28;20228;-58
2023/04/05 06:50:57;;;;;;;13.70;8.23;;;;;;;-1.14;85.87;99116.53;5021616;28;20263;-58
2023/04/05 06:53:26;;;;;;;14.63;8.33;;;;;;;-1.10;85.10;99106.97;5018631;28;20330;-58
2023/04/05 06:55:53;;;;;;;13.40;8.30;;;;;;;-1.07;85.27;99109.41;5019420;28;20229;-58
2023/04/05 06:58:19;;;;;;;14.80;8.33;;;;;;;-1.01;84.67;99110.84;5019346;28;20219;-58
2023/04/05 07:00:46;;;;;;;15.57;8.23;;;;;;;-0.91;84.35;99105.28;5021588;28;20239;-56
2023/04/05 07:03:13;;;;;;;14.63;7.60;;;;;;;-0.81;84.27;99107.47;5011945;28;20595;-57
2023/04/05 07:05:41;;;;;;;15.47;7.70;;;;;;;-0.76;83.74;99105.53;5020761;28;20294;-57
2023/04/05 07:08:07;;;;;;;9.77;6.93;;;;;;;-0.70;83.92;99109.53;5021619;28;20240;-58
2023/04/05 07:10:34;;;;;;;10.80;7.68;;;;;;;-0.57;83.82;99110.66;5021235;28;20429;-57
2023/04/05 07:13:01;;;;;;;12.07;6.30;;;;;;;-0.48;83.59;99110.25;5020644;28;20231;-58
2023/04/05 07:15:27;;;;;;;8.37;5.07;;;;;;;-0.35;82.83;99114.84;5017056;28;20239;-58
2023/04/05 07:17:54;;;;;;;9.90;5.77;;;;;;;-0.18;81.49;99114.06;5017170;28;20239;-57
2023/04/05 07:20:20;;;;;;;7.67;4.83;;;;;;;-0.02;80.32;99114.19;5016206;28;20288;-58
2023/04/05 07:22:48;;;;;;;10.07;6.00;;;;;;;0.16;79.14;99112.50;5018617;28;20253;-58
2023/04/05 07:25:15;;;;;;;11.17;6.63;;;;;;;0.32;78.72;99104.88;5015705;28;20278;-59
2023/04/05 07:27:41;;;;;;;13.43;6.53;;;;;;;0.50;78.20;99112.59;5019767;28;20571;-58
2023/04/05 07:30:09;;;;;;;9.80;6.40;;;;;;;0.65;77.05;99113.56;5022606;28;20670;-59
2023/04/05 07:32:35;;;;;;;8.63;5.77;;;;;;;0.81;76.52;99104.19;5016062;28;20718;-58
2023/04/05 07:35:03;;;;;;;6.77;5.00;;;;;;;0.98;74.92;99105.94;5021731;28;20239;-58
2023/04/05 07:37:29;;;;;;;7.43;5.23;;;;;;;1.12;75.01;99102.66;5014779;28;20238;-58
2023/04/05 07:39:57;;;;;;;10.80;7.00;;;;;;;1.26;71.97;99111.41;5017799;28;20434;-57
2023/04/05 07:42:24;;;;;;;12.17;6.17;;;;;;;1.42;69.39;99116.56;5016298;28;20315;-56
2023/04/05 07:44:51;;;;;;;8.40;5.67;;;;;;;1.46;68.90;99112.91;5018175;28;20310;-58
2023/04/05 07:47:18;;;;;;;12.80;6.37;;;;;;;1.57;68.78;99118.31;5014532;28;20228;-57
2023/04/05 07:49:45;;;;;;;13.13;5.90;;;;;;;1.63;68.35;99114.59;5018583;28;20826;-59
2023/04/05 07:52:11;;;;;;;13.47;7.30;;;;;;;1.71;68.98;99112.44;5012216;28;20236;-58
2023/04/05 07:54:38;;;;;;;10.03;6.27;;;;;;;1.82;69.16;99119.59;5019283;28;20235;-58
2023/04/05 07:57:07;;;;;;;10.53;6.60;;;;;;;1.82;68.07;99121.31;5018613;28;20737;-58
2023/04/05 07:59:34;;;;;;;13.40;6.13;;;;;;;1.95;68.78;99119.75;5015685;28;20239;-57
2023/04/05 08:02:00;;;;;;;11.57;6.60;;;;;;;2.02;69.67;99117.69;5020091;28;20232;-57
2023/04/05 08:04:27;;;;;;;10.70;7.10;;;;;;;2.16;67.95;99119.50;5014206;28;20236;-59
2023/04/05 08:06:53;;;;;;;13.67;7.00;;;;;;;2.31;66.86;99123.78;5017470;28;20232;-59
2023/04/05 08:09:20;;;;;;;12.90;6.77;;;;;;;2.30;67.64;99119.56;5012735;28;20239;-58
2023/04/05 08:11:46;;;;;;;11.33;7.83;;;;;;;2.37;68.31;99138.06;5016917;28;20242;-57
2023/04/05 08:14:15;;;;;;;11.20;6.90;;;;;;;2.42;68.26;99132.66;5015814;28;20229;-59
2023/04/05 08:16:42;;;;;;;12.37;6.60;;;;;;;2.47;66.44;99136.63;5018125;28;20240;-57
2023/04/05 08:19:09;;;;;;;9.53;6.17;;;;;;;2.45;64.94;99124.75;5014853;28;20232;-58
2023/04/05 08:21:36;;;;;;;11.40;6.97;;;;;;;2.56;65.90;99134.44;5016865;28;20595;-58
2023/04/05 08:24:02;;;;;;;13.50;7.60;;;;;;;2.56;66.78;99130.13;5014445;28;20221;-56
2023/04/05 08:26:29;;;;;;;13.37;7.57;;;;;;;2.67;64.61;99129.50;5014339;28;20243;-57
2023/04/05 08:28:55;;;;;;;21.33;10.23;;;;;;;2.66;66.30;99127.84;5016841;28;20327;-58
2023/04/05 08:31:23;;;;;;;14.30;9.53;;;;;;;2.77;66.65;99135.81;5012954;28;20237;-58
2023/04/05 08:33:51;;;;;;;15.70;9.10;;;;;;;2.77;68.25;99129.81;5016505;28;20232;-55
2023/04/05 08:36:17;;;;;;;15.90;9.53;;;;;;;2.93;67.65;99128.00;5016419;28;20277;-55
2023/04/05 08:38:44;;;;;;;16.60;8.33;;;;;;;3.01;66.71;99126.72;5020298;28;20238;-58
2023/04/05 08:41:16;;;;;;;15.67;9.87;;;;;;;3.14;66.49;99127.66;5015910;28;20234;-58
2023/04/05 08:43:56;;;;;;;13.67;7.83;;;;;;;3.14;65.95;99121.69;5015275;28;20651;-59
2023/04/05 08:46:25;;;;;;;11.90;8.40;;;;;;;3.25;64.58;99130.44;5016010;28;20233;-57
2023/04/05 08:48:52;;;;;;;15.20;7.50;;;;;;;3.33;62.24;99127.38;5016149;28;20260;-56
2023/04/05 08:51:20;;;;;;;12.03;6.90;;;;;;;3.33;62.88;99131.72;5013021;28;20235;-57
2023/04/05 08:53:47;;;;;;;11.77;7.93;;;;;;;3.38;63.54;99129.69;5017850;28;20228;-58
2023/04/05 08:56:15;;;;;;;15.10;7.77;;;;;;;3.45;62.30;99114.66;5013652;28;20671;-58
2023/04/05 08:58:49;;;;;;;12.50;7.40;;;;;;;3.58;61.66;99127.66;5017879;28;20634;-58
2023/04/05 09:01:16;;;;;;;12.43;7.10;;;;;;;3.63;59.83;99128.22;5011215;28;20797;-57
2023/04/05 09:03:46;;;;;;;12.37;6.90;;;;;;;3.71;58.86;99125.16;5014124;28;20237;-58
2023/04/05 09:06:14;;;;;;;11.97;6.50;;;;;;;3.75;57.27;99122.25;5012811;28;20236;-54
2023/04/05 09:08:41;;;;;;;11.37;6.73;;;;;;;3.70;57.02;99121.75;5014142;28;20237;-57
2023/04/05 09:11:07;;;;;;;10.60;6.30;;;;;;;3.78;59.23;99127.25;5015580;28;20231;-58
2023/04/05 09:13:34;;;;;;;12.90;7.37;;;;;;;3.88;58.90;99122.34;5015374;28;20313;-58
2023/04/05 09:16:01;;;;;;;11.03;6.90;;;;;;;3.97;57.83;99126.94;5016268;28;20224;-58
2023/04/05 09:18:28;;;;;;;13.33;7.03;;;;;;;4.05;56.47;99123.06;5013448;28;20263;-58
2023/04/05 09:21:04;;;;;;;15.40;7.63;;;;;;;4.10;57.14;99119.25;5012745;28;20236;-58
2023/04/05 09:23:31;;;;;;;15.70;9.37;;;;;;;4.25;57.30;99120.00;5014938;28;20316;-57
2023/04/05 09:25:57;;;;;;;13.43;7.93;;;;;;;4.35;56.93;99122.84;5012884;28;20620;-57
2023/04/05 09:28:40;;;;;;;14.57;8.07;;;;;;;4.49;55.32;99114.19;5013940;28;20720;-55
2023/04/05 09:31:06;;;;;;;13.17;7.87;;;;;;;4.60;56.35;99115.25;5032687;28;20236;-58
2023/04/05 09:33:34;;;;;;;15.73;7.60;;;;;;;4.65;55.78;99110.59;5014012;28;20801;-58
2023/04/05 09:36:00;;;;;;;12.43;7.47;;;;;;;4.80;55.24;99122.53;5016791;28;20765;-56
2023/04/05 09:41:20;;;;;;;10.23;6.83;;;;;;;4.86;55.71;99121.28;5055867;27;20588;-57
2023/04/05 09:43:52;;;;;;;13.87;7.90;;;;;;;4.85;52.72;99123.06;5074833;28;20309;-55
2023/04/05 09:46:32;;;;;;;11.30;6.80;;;;;;;4.85;52.35;99114.44;5072352;28;20592;-56
2023/04/05 09:49:00;;;;;;;14.23;7.10;;;;;;;4.78;53.02;99119.22;5076062;28;20224;-56
2023/04/05 09:51:33;;;;;;;14.30;7.27;;;;;;;4.88;52.51;99117.66;5070693;28;20241;-56
2023/04/05 09:54:01;;;;;;;14.83;8.17;;;;;;;4.94;53.57;99115.59;5071087;28;20306;-56
2023/04/05 09:56:36;;;;;;;11.43;7.30;;;;;;;4.95;54.43;99112.91;5070656;28;20793;-56
2023/04/05 09:59:06;;;;;;;13.13;7.97;;;;;;;5.06;53.32;99107.03;5073711;28;20229;-57
2023/04/05 10:01:33;;;;;;;15.00;6.97;;;;;;;5.09;53.17;99099.06;5070895;28;20228;-57
2023/04/05 10:04:01;;;;;;;10.37;7.20;;;;;;;5.24;53.13;99106.72;5075263;28;20234;-56
2023/04/05 10:06:38;;;;;;;9.10;6.90;;;;;;;5.43;51.91;99108.84;5073543;28;20242;-57
2023/04/05 10:09:06;;;;;;;12.23;7.63;;;;;;;5.50;52.81;99111.84;5091982;28;20709;-57
2023/04/05 10:11:35;;;;;;;10.00;6.83;;;;;;;5.46;51.17;99106.06;5069543;28;20234;-58
2023/04/05 10:14:04;;;;;;;13.50;7.03;;;;;;;5.61;49.84;99117.09;5075005;28;20231;-57
2023/04/05 10:16:33;;;;;;;11.83;6.80;;;;;;;5.65;48.61;99108.19;5072415;28;20792;-58
2023/04/05 10:19:01;;;;;;;13.20;6.87;;;;;;;5.70;49.33;99100.09;5072019;28;20268;-57
2023/04/05 10:21:30;;;;;;;9.63;6.87;;;;;;;5.59;48.61;99098.25;5072538;28;20222;-58
2023/04/05 10:24:05;;;;;;;11.13;7.53;;;;;;;5.83;47.92;99097.47;5073940;28;20255;-57
2023/04/05 10:26:39;;;;;;;10.37;6.50;;;;;;;5.86;48.04;99095.47;5071111;28;20237;-55
2023/04/05 10:29:11;;;;;;;11.47;7.37;;;;;;;6.01;47.68;99093.59;5069461;28;20226;-57
2023/04/05 10:31:45;;;;;;;10.37;6.73;;;;;;;6.10;47.73;99096.47;5071239;28;20230;-58
2023/04/05 10:34:20;;;;;;;9.97;6.53;;;;;;;6.14;46.16;99083.16;5069931;28;20233;-57
2023/04/05 10:36:54;;;;;;;9.50;6.03;;;;;;;6.05;45.63;99081.22;5072622;28;20254;-58
2023/04/05 10:39:26;;;;;;;15.80;6.23;;;;;;;6.03;46.85;99073.59;5072386;28;20592;-58
2023/04/05 10:41:56;;;;;;;10.13;6.80;;;;;;;6.24;48.69;99083.34;5071409;28;20305;-57
2023/04/05 10:44:23;;;;;;;11.97;6.60;;;;;;;6.26;46.12;99078.88;5069774;28;20231;-57
2023/04/05 10:46:52;;;;;;;11.53;6.77;;;;;;;6.24;45.24;99069.53;5071694;28;20275;-58
2023/04/05 10:49:24;;;;;;;8.33;6.40;;;;;;;6.31;47.03;99074.19;5067145;28;20237;-57
2023/04/05 10:51:51;;;;;;;11.50;6.70;;;;;;;6.36;46.43;99068.63;5060336;28;20235;-57
2023/04/05 10:54:19;;;;;;;10.80;7.17;;;;;;;6.56;48.42;99067.16;5055343;28;20645;-57
2023/04/05 10:56:47;;;;;;;12.73;6.97;;;;;;;6.71;49.12;99077.31;5059387;28;20231;-58
2023/04/05 10:59:15;;;;;;;9.33;6.93;;;;;;;6.62;45.94;99069.28;5056315;28;20288;-58
2023/04/05 11:01:43;;;;;;;10.07;7.20;;;;;;;6.67;45.60;99062.94;5060744;28;20234;-57
2023/04/05 11:04:14;;;;;;;11.90;6.53;;;;;;;6.71;45.35;99062.59;5058946;28;20230;-58
2023/04/05 11:06:41;;;;;;;14.00;7.57;;;;;;;6.70;44.42;99065.28;5058382;28;20225;-58
2023/04/05 11:09:12;;;;;;;10.77;6.70;;;;;;;6.62;44.77;99058.91;5056531;28;20218;-58
2023/04/05 11:11:40;;;;;;;9.93;6.57;;;;;;;6.57;45.92;99055.03;5057920;28;20610;-56
2023/04/05 11:14:24;;;;;;;13.53;7.40;;;;;;;6.79;45.71;99057.66;5056148;28;20314;-57
2023/04/05 11:16:55;;;;;;;9.30;6.53;;;;;;;6.83;44.13;99060.03;5057202;28;20320;-57
2023/04/05 11:19:52;;;;;;;14.13;6.97;;;;;;;6.82;44.40;99051.41;5054811;28;20231;-57
2023/04/05 11:22:26;;;;;;;9.60;6.20;;;;;;;6.97;46.79;99054.59;5057989;28;20227;-57
2023/04/05 11:24:56;;;;;;;10.57;6.50;;;;;;;7.13;46.00;99051.66;5060374;28;20817;-57
2023/04/05 11:27:25;;;;;;;11.67;6.87;;;;;;;7.35;46.14;99053.41;5058175;28;20238;-57
2023/04/05 11:29:54;;;;;;;9.80;6.67;;;;;;;7.40;44.89;99040.09;5058660;28;20310;-57
2023/04/05 11:32:22;;;;;;;11.53;6.97;;;;;;;7.41;45.57;99046.09;5055209;28;20239;-57
2023/04/05 11:34:59;;;;;;;9.37;7.00;;;;;;;7.34;45.23;99040.56;5074513;28;20273;-58
2023/04/05 11:37:53;;;;;;;12.10;6.53;;;;;;;7.35;44.18;99050.00;5053459;28;20234;-58
2023/04/05 11:40:28;;;;;;;14.23;6.13;;;;;;;7.50;45.26;99038.38;5053139;28;20241;-57
2023/04/05 11:42:59;;;;;;;10.43;6.60;;;;;;;7.52;45.89;99035.69;5059244;28;20686;-58
2023/04/05 11:45:29;;;;;;;10.70;6.37;;;;;;;7.63;43.88;99042.63;5054710;28;20226;-58
2023/04/05 11:47:57;;;;;;;10.77;6.27;;;;;;;7.59;45.55;99028.22;5058089;28;20284;-57
2023/04/05 11:50:23;;;;;;;10.97;6.50;;;;;;;7.82;46.80;99027.22;5055000;28;20226;-58